Humidity-temperature Sensor

Selected Measurement Type: Air Temperature

 
Air Temperature [°C]     6 entries per hour
Showing data from 8/6/2020 (00:00:00 Z) to 8/3/2020 (00:01:00 Z)
Previous Next [ Day | 3-Days | 7-Days ]
First Last
Prev [ Day | 3-Days | 7-Days ] Next
First Last

Start Time:     :
End Time:     :     
Time (in GMT) :00 :50 :40 :30 :20 :10
Previous Next [ Day | 3-Days | 7-Days ]
First Last
Prev [ Day | 3-Days | 7-Days ] Next
First Last


123 => good data
MM => data is determined as missing
-- => data not received/configured
Back to Top Back to Top
8/6/2020 00:00 to 23:10 20.07 20.04 20.04 20.00 19.92 20.01
8/5/2020 23:00 to 22:10 20.02 20.06 20.25 20.34 20.28 20.25
8/5/2020 22:00 to 21:10 20.26 20.23 20.25 20.22 20.28 20.25
8/5/2020 21:00 to 20:10 20.22 20.17 20.18 20.11 20.08 20.07
8/5/2020 20:00 to 19:10 20.00 19.98 19.95 19.90 19.91 19.94
8/5/2020 19:00 to 18:10 19.87 19.78 19.80 19.78 19.67 19.74
8/5/2020 18:00 to 17:10 19.87 19.82 19.73 19.87 20.00 19.90
8/5/2020 17:00 to 16:10 19.84 19.78 19.92 19.98 19.95 19.89
8/5/2020 16:00 to 15:10 19.77 19.61 19.61 19.77 19.95 19.89
8/5/2020 15:00 to 14:10 19.82 19.66 19.56 19.71 19.80 19.79
8/5/2020 14:00 to 13:10 19.94 19.90 19.83 19.82 19.76 19.66
8/5/2020 13:00 to 12:10 19.65 19.53 19.32 19.78 19.69 19.61
8/5/2020 12:00 to 11:10 19.70 19.82 19.76 19.73 19.78 19.91
8/5/2020 11:00 to 10:10 19.90 19.93 19.92 19.94 19.80 19.17
8/5/2020 10:00 to 9:10 19.26 19.31 19.18 19.28 19.44 19.45
8/5/2020 09:00 to 8:10 19.62 19.88 19.88 19.76 19.42 19.28
8/5/2020 08:00 to 7:10 19.33 19.59 19.71 19.89 19.89 19.95
8/5/2020 07:00 to 6:10 20.16 20.30 20.39 20.37 20.40 20.57
8/5/2020 06:00 to 5:10 20.61 20.49 20.56 20.66 20.80 20.67
8/5/2020 05:00 to 4:10 20.72 20.73 20.66 20.83 20.72 20.42
8/5/2020 04:00 to 3:10 20.44 20.50 20.48 20.49 20.50 20.50
8/5/2020 03:00 to 2:10 20.48 20.48 20.45 20.45 20.43 20.41
8/5/2020 02:00 to 1:10 20.42 20.41 20.43 20.42 20.44 20.44
8/5/2020 01:00 to 0:10 20.44 20.46 20.48 20.52 20.58 20.64
8/5/2020 00:00 to 23:10 20.73 20.78 20.81 20.83 20.85 20.87
8/4/2020 23:00 to 22:10 20.81 20.79 20.78 20.80 20.81 20.82
8/4/2020 22:00 to 21:10 20.80 20.77 20.79 20.76 20.80 20.77
8/4/2020 21:00 to 20:10 20.76 20.75 20.73 20.76 20.77 20.74
8/4/2020 20:00 to 19:10 20.75 20.76 20.76 20.75 20.76 20.74
8/4/2020 19:00 to 18:10 20.78 20.76 20.75 20.73 20.73 20.71
8/4/2020 18:00 to 17:10 20.70 20.69 20.67 20.65 20.62 20.60
8/4/2020 17:00 to 16:10 20.58 20.57 20.56 20.58 20.55 20.54
8/4/2020 16:00 to 15:10 20.52 20.50 20.49 20.57 20.60 20.48
8/4/2020 15:00 to 14:10 20.48 20.38 20.01 19.82 19.90 20.12
8/4/2020 14:00 to 13:10 20.02 19.98 19.86 19.94 20.17 20.21
8/4/2020 13:00 to 12:10 19.97 20.06 20.12 20.28 20.23 20.16
8/4/2020 12:00 to 11:10 20.16 19.88 19.82 19.84 19.95 20.00
8/4/2020 11:00 to 10:10 20.02 20.06 19.98 20.01 20.01 19.99
8/4/2020 10:00 to 9:10 19.97 19.88 19.92 20.10 20.14 20.13
8/4/2020 09:00 to 8:10 20.13 20.18 20.14 20.08 20.01 20.01
8/4/2020 08:00 to 7:10 20.04 19.96 19.96 19.93 19.93 19.92
8/4/2020 07:00 to 6:10 19.91 19.95 19.95 19.93 19.95 19.97
8/4/2020 06:00 to 5:10 19.94 19.91 19.90 19.88 19.92 19.99
8/4/2020 05:00 to 4:10 20.01 20.01 20.01 20.02 20.04 20.01
8/4/2020 04:00 to 3:10 19.95 19.94 19.98 19.92 19.86 19.93
8/4/2020 03:00 to 2:10 20.02 19.97 19.94 19.96 20.05 20.07
8/4/2020 02:00 to 1:10 20.06 20.10 20.10 20.08 20.05 20.04
8/4/2020 01:00 to 0:10 20.00 20.04 20.04 20.06 20.07 20.09
8/4/2020 00:00 to 23:10 20.06 20.05 20.08 20.16 20.13 20.13
8/3/2020 23:00 to 22:10 20.18 20.25 20.19 20.16 20.14 20.15
8/3/2020 22:00 to 21:10 20.16 20.12 20.06 20.02 20.13 20.12
8/3/2020 21:00 to 20:10 20.17 20.33 20.30 20.21 20.20 20.12
8/3/2020 20:00 to 19:10 20.16 20.08 20.17 20.29 20.40 20.35
8/3/2020 19:00 to 18:10 20.43 20.44 20.43 20.45 20.42 20.31
8/3/2020 18:00 to 17:10 20.30 20.35 20.40 20.50 20.62 20.68
8/3/2020 17:00 to 16:10 20.70 20.61 20.50 20.50 20.55 20.55
8/3/2020 16:00 to 15:10 20.46 20.43 20.44 20.37 20.36 20.30
8/3/2020 15:00 to 14:10 20.29 20.26 20.29 20.27 20.27 20.26
8/3/2020 14:00 to 13:10 20.26 20.27 20.28 20.24 20.31 20.22
8/3/2020 13:00 to 12:10 20.23 20.24 20.24 20.24 20.27 20.27
8/3/2020 12:00 to 11:10 20.27 20.28 20.30 20.31 20.35 20.32
8/3/2020 11:00 to 10:10 20.31 20.22 20.12 20.00 19.92 19.98
8/3/2020 10:00 to 9:10 20.04 19.93 19.87 19.96 20.08 20.16
8/3/2020 09:00 to 8:10 20.21 20.16 19.92 19.86 19.88 20.01
8/3/2020 08:00 to 7:10 20.13 20.24 20.24 20.29 20.36 20.22
8/3/2020 07:00 to 6:10 20.12 20.22 20.31 20.12 19.98 19.86
8/3/2020 06:00 to 5:10 19.85 19.81 19.88 19.91 19.99 19.96
8/3/2020 05:00 to 4:10 19.88 19.84 19.81 19.88 19.95 19.94
8/3/2020 04:00 to 3:10 19.97 19.96 20.01 20.08 19.88 19.96
8/3/2020 03:00 to 2:10 19.94 19.87 19.95 20.00 20.07 20.13
8/3/2020 02:00 to 1:10 20.22 20.21 20.21 20.23 20.13 20.23
8/3/2020 01:00 to 0:10 20.20 20.24 20.24 20.22 20.23 20.20